createdAt,value
2022-10-23T00:01:46.122Z,14.50
2022-10-23T00:04:16.884Z,14.00
2022-10-23T00:06:44.905Z,14.40
2022-10-23T00:09:16.741Z,14.40
2022-10-23T00:11:47.533Z,14.00
2022-10-23T00:14:16.398Z,14.40
2022-10-23T00:16:44.222Z,14.10
2022-10-23T00:19:12.260Z,14.60
2022-10-23T00:21:40.235Z,14.40
2022-10-23T00:26:40.440Z,14.60
2022-10-23T00:29:08.474Z,14.30
2022-10-23T00:31:36.260Z,14.30
2022-10-23T00:34:07.854Z,13.80
2022-10-23T00:36:36.102Z,14.30
2022-10-23T00:39:04.353Z,14.00
2022-10-23T00:41:33.128Z,14.20
2022-10-23T00:44:08.079Z,14.30
2022-10-23T00:46:36.964Z,14.00
2022-10-23T00:49:06.553Z,13.80
2022-10-23T00:51:39.345Z,14.10
2022-10-23T00:54:24.715Z,13.80
2022-10-23T00:56:55.470Z,13.60
2022-10-23T00:59:24.975Z,13.90
2022-10-23T01:01:52.856Z,13.90
2022-10-23T01:04:21.740Z,14.00
2022-10-23T01:06:58.096Z,14.20
2022-10-23T01:09:33.479Z,14.20
2022-10-23T01:12:08.084Z,14.20
2022-10-23T01:14:44.199Z,14.00
2022-10-23T01:17:20.653Z,14.30
2022-10-23T01:20:02.129Z,14.00
2022-10-23T01:22:49.168Z,14.10
2022-10-23T01:25:32.851Z,14.20
2022-10-23T01:28:05.847Z,13.80
2022-10-23T01:30:35.007Z,14.30
2022-10-23T01:33:06.950Z,14.20
2022-10-23T01:35:37.993Z,14.30
2022-10-23T01:38:10.444Z,14.30
2022-10-23T01:40:45.128Z,14.20
2022-10-23T01:43:18.028Z,13.90
2022-10-23T01:45:50.741Z,14.20
2022-10-23T01:48:23.324Z,13.90
2022-10-23T01:50:52.795Z,13.90
2022-10-23T01:53:21.791Z,13.30
2022-10-23T01:55:51.284Z,13.90
2022-10-23T01:58:21.885Z,13.90
2022-10-23T02:00:51.745Z,13.30
2022-10-23T02:03:20.618Z,14.00
2022-10-23T02:05:48.441Z,14.00
2022-10-23T02:08:16.263Z,13.90
2022-10-23T02:10:50.841Z,14.00
2022-10-23T02:13:26.498Z,14.10
2022-10-23T02:15:59.579Z,14.00
2022-10-23T02:18:37.019Z,14.10
2022-10-23T02:21:10.262Z,13.80
2022-10-23T02:23:41.247Z,14.10
2022-10-23T02:26:15.503Z,13.40
2022-10-23T02:28:48.014Z,13.90
2022-10-23T02:31:18.392Z,13.70
2022-10-23T02:33:47.925Z,13.80
2022-10-23T02:36:16.697Z,13.80
2022-10-23T02:38:45.695Z,13.80
2022-10-23T02:41:20.603Z,13.60
2022-10-23T02:44:03.194Z,13.80
2022-10-23T02:46:37.219Z,13.70
2022-10-23T02:49:11.517Z,13.40
2022-10-23T02:51:50.945Z,13.50
2022-10-23T02:54:29.458Z,13.40
2022-10-23T02:57:04.187Z,13.70
2022-10-23T02:59:38.266Z,13.70
2022-10-23T03:02:14.118Z,13.00
2022-10-23T03:04:44.104Z,13.30
2022-10-23T03:07:13.691Z,13.60
2022-10-23T03:09:41.805Z,12.90
2022-10-23T03:12:09.571Z,13.40
2022-10-23T03:14:38.696Z,14.00
2022-10-23T03:17:07.432Z,13.60
2022-10-23T03:19:35.191Z,13.70
2022-10-23T03:22:02.960Z,13.70
2022-10-23T03:24:30.794Z,13.70
2022-10-23T03:26:58.486Z,13.70
2022-10-23T03:29:26.181Z,13.10
2022-10-23T03:31:55.708Z,13.20
2022-10-23T03:34:23.474Z,13.60
2022-10-23T03:36:51.204Z,13.60
2022-10-23T03:39:18.943Z,13.70
2022-10-23T03:41:46.714Z,13.40
2022-10-23T03:44:14.486Z,13.50
2022-10-23T03:46:42.187Z,13.70
2022-10-23T03:49:11.277Z,13.40
2022-10-23T03:51:41.537Z,13.10
2022-10-23T03:54:09.461Z,13.50
2022-10-23T03:56:37.246Z,12.90
2022-10-23T03:59:05.673Z,13.20
2022-10-23T04:01:33.504Z,13.50
2022-10-23T04:04:01.298Z,13.50
2022-10-23T04:06:30.458Z,13.30
2022-10-23T04:08:58.407Z,13.50
2022-10-23T04:11:26.422Z,13.20
2022-10-23T04:13:54.342Z,13.60
2022-10-23T04:16:22.102Z,13.60
2022-10-23T04:18:49.814Z,12.70
2022-10-23T04:21:17.813Z,13.20
2022-10-23T04:23:47.075Z,13.40
2022-10-23T04:26:14.839Z,13.20
2022-10-23T04:28:42.551Z,12.70
2022-10-23T04:31:10.288Z,13.30
2022-10-23T04:33:38.011Z,13.40
2022-10-23T04:36:06.511Z,13.10
2022-10-23T04:38:34.204Z,13.30
2022-10-23T04:41:03.270Z,13.20
2022-10-23T04:43:31.003Z,12.90
2022-10-23T04:45:58.772Z,12.40
2022-10-23T04:48:28.449Z,12.90
2022-10-23T04:50:58.374Z,13.00
2022-10-23T04:53:26.268Z,12.80
2022-10-23T04:55:55.849Z,12.90
2022-10-23T04:58:25.721Z,12.80
2022-10-23T05:00:54.070Z,13.00
2022-10-23T05:03:22.668Z,12.70
2022-10-23T05:05:50.388Z,12.80
2022-10-23T05:08:18.387Z,12.80
2022-10-23T05:10:46.141Z,13.20
2022-10-23T05:13:13.852Z,12.90
2022-10-23T05:18:14.078Z,13.00
2022-10-23T05:20:42.941Z,12.30
2022-10-23T05:23:12.150Z,12.30
2022-10-23T05:25:39.945Z,12.90
2022-10-23T05:28:07.813Z,13.20
2022-10-23T05:30:35.697Z,12.80
2022-10-23T05:33:05.257Z,13.20
2022-10-23T05:35:33.059Z,13.10
2022-10-23T05:38:02.867Z,12.80
2022-10-23T05:40:30.811Z,13.10
2022-10-23T05:42:58.567Z,12.80
2022-10-23T05:45:26.455Z,13.10
2022-10-23T05:47:56.557Z,13.10
2022-10-23T05:50:27.816Z,13.40
2022-10-23T05:52:55.560Z,13.20
2022-10-23T05:55:23.276Z,13.10
2022-10-23T05:57:51.011Z,13.00
2022-10-23T06:00:18.873Z,12.70
2022-10-23T06:02:46.633Z,13.00
2022-10-23T06:05:14.400Z,12.90
2022-10-23T06:07:43.896Z,13.10
2022-10-23T06:10:11.967Z,12.50
2022-10-23T06:12:41.797Z,12.90
2022-10-23T06:15:11.360Z,12.90
2022-10-23T06:17:39.180Z,13.20
2022-10-23T06:20:08.284Z,12.50
2022-10-23T06:22:36.070Z,12.90
2022-10-23T06:25:05.858Z,12.90
2022-10-23T06:27:33.670Z,13.20
2022-10-23T06:30:01.408Z,13.30
2022-10-23T06:32:32.483Z,13.40
2022-10-23T06:35:00.204Z,13.50
2022-10-23T06:37:27.980Z,13.40
2022-10-23T06:39:55.721Z,13.30
2022-10-23T06:42:25.122Z,13.30
2022-10-23T06:44:53.066Z,13.30
2022-10-23T06:47:20.787Z,13.10
2022-10-23T06:49:48.501Z,13.20
2022-10-23T06:52:34.920Z,13.60
2022-10-23T06:55:04.170Z,13.80
2022-10-23T06:57:34.351Z,13.80
2022-10-23T07:00:02.150Z,13.50
2022-10-23T07:02:29.904Z,13.90
2022-10-23T07:04:57.663Z,14.30
2022-10-23T07:07:25.489Z,14.10
2022-10-23T07:09:53.208Z,13.80
2022-10-23T07:12:20.933Z,13.90
2022-10-23T07:15:18.064Z,14.10
2022-10-23T07:17:45.872Z,14.50
2022-10-23T07:20:13.582Z,14.50
2022-10-23T07:22:41.773Z,13.90
2022-10-23T07:25:10.149Z,14.40
2022-10-23T07:27:38.311Z,14.70
2022-10-23T07:30:08.804Z,14.80
2022-10-23T07:32:36.632Z,15.00
2022-10-23T07:35:04.743Z,15.00
2022-10-23T07:37:32.592Z,15.40
2022-10-23T07:40:00.372Z,15.00
2022-10-23T07:42:28.073Z,15.20
2022-10-23T07:44:55.910Z,15.10
2022-10-23T07:47:25.109Z,15.00
2022-10-23T07:49:52.851Z,14.70
2022-10-23T07:52:20.552Z,15.00
2022-10-23T07:54:51.902Z,14.40
2022-10-23T07:57:19.704Z,14.50
2022-10-23T07:59:47.529Z,15.20
2022-10-23T08:02:16.295Z,15.50
2022-10-23T08:04:45.508Z,15.40
2022-10-23T08:07:13.235Z,15.60
2022-10-23T08:09:40.961Z,15.10
2022-10-23T08:12:08.807Z,15.70
2022-10-23T08:14:36.515Z,15.70
2022-10-23T08:17:04.980Z,15.20
2022-10-23T08:19:33.180Z,15.60
2022-10-23T08:22:02.325Z,16.20
2022-10-23T08:24:30.241Z,16.20
2022-10-23T08:26:58.599Z,17.00
2022-10-23T08:29:26.521Z,18.00
2022-10-23T08:31:55.871Z,19.20
2022-10-23T08:34:24.165Z,19.90
2022-10-23T08:36:51.940Z,20.60
2022-10-23T08:39:21.124Z,20.90
2022-10-23T08:41:50.929Z,21.60
2022-10-23T08:44:23.818Z,21.50
2022-10-23T08:47:00.140Z,22.50
2022-10-23T08:49:58.875Z,22.40
2022-10-23T08:52:30.868Z,22.10
2022-10-23T08:55:06.354Z,22.50
2022-10-23T08:57:41.463Z,22.40
2022-10-23T09:00:15.664Z,23.40
2022-10-23T09:02:45.817Z,24.10
2022-10-23T09:05:18.089Z,24.60
2022-10-23T09:08:02.018Z,25.30
2022-10-23T09:10:52.504Z,26.10
2022-10-23T09:13:36.128Z,25.40
2022-10-23T09:16:12.647Z,24.60
2022-10-23T09:18:42.936Z,24.20
2022-10-23T09:21:11.124Z,24.50
2022-10-23T09:23:39.023Z,25.00
2022-10-23T09:26:15.072Z,25.20
2022-10-23T09:28:48.115Z,25.30
2022-10-23T09:31:15.894Z,25.70
2022-10-23T09:33:54.343Z,26.70
2022-10-23T09:36:24.451Z,27.40
2022-10-23T09:38:54.221Z,27.60
2022-10-23T09:41:28.751Z,28.10
2022-10-23T09:44:10.796Z,28.30
2022-10-23T09:46:39.926Z,28.90
2022-10-23T09:49:15.866Z,29.30
2022-10-23T09:52:03.784Z,29.00
2022-10-23T09:54:34.295Z,28.20
2022-10-23T09:57:20.690Z,27.20
2022-10-23T09:59:53.072Z,26.50
2022-10-23T10:02:27.968Z,25.70
2022-10-23T10:04:56.009Z,25.00
2022-10-23T10:07:26.461Z,24.50
2022-10-23T10:09:55.397Z,24.40
2022-10-23T10:12:38.742Z,24.60
2022-10-23T10:15:16.727Z,25.00
2022-10-23T10:17:52.005Z,25.00
2022-10-23T10:20:44.257Z,25.00
2022-10-23T10:23:21.393Z,24.70
2022-10-23T10:25:56.156Z,24.20
2022-10-23T10:28:41.838Z,23.80
2022-10-23T10:31:17.541Z,23.50
2022-10-23T10:33:57.627Z,23.10
2022-10-23T10:36:40.048Z,22.50
2022-10-23T10:39:14.517Z,22.70
2022-10-23T10:41:50.974Z,22.60
2022-10-23T10:44:43.529Z,22.30
2022-10-23T10:47:21.451Z,21.70
2022-10-23T10:49:57.719Z,22.10
2022-10-23T10:52:33.762Z,22.10
2022-10-23T10:55:10.239Z,22.20
2022-10-23T10:57:41.376Z,22.40
2022-10-23T11:00:17.249Z,22.80
2022-10-23T11:02:48.058Z,23.40
2022-10-23T11:05:31.332Z,23.80
2022-10-23T11:08:02.244Z,24.10
2022-10-23T11:10:31.844Z,24.30
2022-10-23T11:12:59.847Z,24.50
2022-10-23T11:15:32.195Z,24.70
2022-10-23T11:18:02.504Z,24.70
2022-10-23T11:20:50.696Z,24.10
2022-10-23T11:23:49.566Z,23.60
2022-10-23T11:26:29.800Z,23.30
2022-10-23T11:29:12.989Z,22.80
2022-10-23T11:31:51.518Z,22.90
2022-10-23T11:34:40.785Z,22.50
2022-10-23T11:37:09.054Z,22.50
2022-10-23T11:39:39.991Z,22.60
2022-10-23T11:42:16.773Z,22.60
2022-10-23T11:44:45.677Z,22.60
2022-10-23T11:47:43.707Z,22.40
2022-10-23T11:50:26.648Z,22.20
2022-10-23T11:53:14.687Z,22.10
2022-10-23T11:56:01.923Z,22.70
2022-10-23T11:58:42.192Z,23.30
2022-10-23T12:01:25.861Z,23.70
2022-10-23T12:03:57.868Z,24.00
2022-10-23T12:06:28.853Z,24.20
2022-10-23T12:09:00.923Z,24.70
2022-10-23T12:11:41.509Z,25.50
2022-10-23T12:14:32.063Z,26.50
2022-10-23T12:17:00.022Z,27.20
2022-10-23T12:19:31.489Z,27.90
2022-10-23T12:22:02.113Z,28.50
2022-10-23T12:24:47.923Z,28.70
2022-10-23T12:27:26.176Z,28.60
2022-10-23T12:30:10.481Z,28.00
2022-10-23T12:33:01.184Z,27.20
2022-10-23T12:35:50.080Z,26.60
2022-10-23T12:38:20.347Z,26.50
2022-10-23T12:40:52.981Z,26.50
2022-10-23T12:43:29.519Z,26.60
2022-10-23T12:46:01.160Z,26.50
2022-10-23T12:48:28.887Z,26.30
2022-10-23T12:50:58.019Z,25.70
2022-10-23T12:53:25.733Z,25.30
2022-10-23T12:55:58.165Z,25.30
2022-10-23T12:58:29.965Z,25.30
2022-10-23T13:01:00.336Z,25.50
2022-10-23T13:03:30.546Z,25.60
2022-10-23T13:06:02.526Z,25.70
2022-10-23T13:08:34.541Z,25.70
2022-10-23T13:11:02.730Z,25.50
2022-10-23T13:13:30.614Z,25.80
2022-10-23T13:15:58.332Z,25.90
2022-10-23T13:18:26.089Z,25.90
2022-10-23T13:20:59.918Z,26.10
2022-10-23T13:23:32.043Z,25.90
2022-10-23T13:26:01.466Z,25.90
2022-10-23T13:28:30.228Z,25.60
2022-10-23T13:31:07.401Z,25.50
2022-10-23T13:33:38.334Z,25.30
2022-10-23T13:36:22.074Z,25.10
2022-10-23T13:39:02.282Z,25.10
2022-10-23T13:41:35.196Z,24.90
2022-10-23T13:44:03.051Z,24.70
2022-10-23T13:46:30.989Z,24.50
2022-10-23T13:48:58.744Z,24.30
2022-10-23T13:51:30.067Z,24.20
2022-10-23T13:53:58.844Z,24.20
2022-10-23T13:56:28.640Z,24.20
2022-10-23T13:58:56.552Z,24.30
2022-10-23T14:01:27.402Z,24.20
2022-10-23T14:03:56.543Z,24.20
2022-10-23T14:06:24.537Z,24.00
2022-10-23T14:08:53.688Z,23.90
2022-10-23T14:11:22.162Z,23.90
2022-10-23T14:13:50.688Z,23.70
2022-10-23T14:16:20.803Z,23.70
2022-10-23T14:18:48.680Z,23.60
2022-10-23T14:21:20.829Z,23.70
2022-10-23T14:23:48.951Z,23.30
2022-10-23T14:26:19.912Z,23.30
2022-10-23T14:28:47.740Z,22.90
2022-10-23T14:31:17.493Z,23.10
2022-10-23T14:33:46.010Z,23.00
2022-10-23T14:36:14.018Z,22.80
2022-10-23T14:38:41.799Z,22.80
2022-10-23T14:41:13.935Z,22.70
2022-10-23T14:43:43.568Z,22.70
2022-10-23T14:46:13.403Z,22.70
2022-10-23T14:48:44.574Z,22.70
2022-10-23T14:51:20.018Z,22.60
2022-10-23T14:53:48.140Z,22.60
2022-10-23T14:56:16.335Z,22.30
2022-10-23T14:58:45.390Z,22.50
2022-10-23T15:01:13.251Z,22.60
2022-10-23T15:03:41.686Z,22.60
2022-10-23T15:06:09.433Z,22.60
2022-10-23T15:08:37.365Z,22.50
2022-10-23T15:11:08.911Z,22.40
2022-10-23T15:13:39.449Z,22.40
2022-10-23T15:16:10.803Z,21.90
2022-10-23T15:18:38.903Z,22.30
2022-10-23T15:21:08.756Z,22.40
2022-10-23T15:23:37.920Z,22.20
2022-10-23T15:26:07.779Z,21.60
2022-10-23T15:28:36.231Z,22.00
2022-10-23T15:31:04.265Z,21.90
2022-10-23T15:33:33.398Z,21.40
2022-10-23T15:36:01.100Z,21.80
2022-10-23T15:38:28.808Z,21.70
2022-10-23T15:41:14.155Z,21.80
2022-10-23T15:43:41.917Z,21.70
2022-10-23T15:46:09.916Z,21.10
2022-10-23T15:48:40.456Z,21.20
2022-10-23T15:51:09.047Z,21.40
2022-10-23T15:53:36.945Z,21.40
2022-10-23T15:56:05.193Z,21.30
2022-10-23T15:58:32.912Z,21.20
2022-10-23T16:01:06.188Z,20.80
2022-10-23T16:03:34.560Z,21.20
2022-10-23T16:06:06.372Z,20.70
2022-10-23T16:08:34.843Z,20.80
2022-10-23T16:11:02.896Z,20.40
2022-10-23T16:13:30.739Z,20.70
2022-10-23T16:15:58.444Z,20.50
2022-10-23T16:18:26.156Z,20.70
2022-10-23T16:20:55.012Z,20.60
2022-10-23T16:23:24.101Z,20.50
2022-10-23T16:25:51.831Z,20.40
2022-10-23T16:28:19.538Z,20.30
2022-10-23T16:30:47.308Z,20.60
2022-10-23T16:33:15.152Z,20.50
2022-10-23T16:35:42.977Z,20.50
2022-10-23T16:38:10.800Z,20.10
2022-10-23T16:40:40.345Z,20.20
2022-10-23T16:43:08.036Z,20.60
2022-10-23T16:45:37.760Z,20.10
2022-10-23T16:48:05.987Z,20.50
2022-10-23T16:50:33.798Z,20.30
2022-10-23T16:53:01.538Z,20.50
2022-10-23T16:55:29.251Z,20.60
2022-10-23T16:58:00.542Z,20.60
2022-10-23T17:00:34.724Z,20.70
2022-10-23T17:03:03.630Z,20.50
2022-10-23T17:05:34.990Z,20.30
2022-10-23T17:08:02.869Z,20.30
2022-10-23T17:10:30.585Z,20.00
2022-10-23T17:13:00.039Z,20.50
2022-10-23T17:15:28.076Z,20.50
2022-10-23T17:17:57.851Z,20.60
2022-10-23T17:20:25.663Z,20.30
2022-10-23T17:22:53.393Z,20.40
2022-10-23T17:25:21.116Z,20.10
2022-10-23T17:27:48.874Z,20.10
2022-10-23T17:30:18.024Z,20.00
2022-10-23T17:32:46.275Z,20.00
2022-10-23T17:35:14.532Z,20.40
2022-10-23T17:37:42.286Z,20.00
2022-10-23T17:40:10.900Z,19.80
2022-10-23T17:42:38.728Z,20.20
2022-10-23T17:45:07.413Z,20.20
2022-10-23T17:47:36.527Z,20.00
2022-10-23T17:50:06.316Z,19.80
2022-10-23T17:52:34.047Z,19.40
2022-10-23T17:55:02.242Z,18.20
2022-10-23T17:57:30.036Z,18.20
2022-10-23T17:59:57.960Z,17.30
2022-10-23T18:02:25.803Z,17.60
2022-10-23T18:04:54.940Z,17.50
2022-10-23T18:07:24.151Z,17.10
2022-10-23T18:09:52.233Z,17.40
2022-10-23T18:12:20.055Z,17.40
2022-10-23T18:14:47.913Z,17.40
2022-10-23T18:17:15.595Z,17.10
2022-10-23T18:19:43.439Z,17.50
2022-10-23T18:22:12.762Z,17.50
2022-10-23T18:24:40.584Z,17.30
2022-10-23T18:27:08.526Z,17.10
2022-10-23T18:29:38.101Z,17.60
2022-10-23T18:32:06.581Z,16.80
2022-10-23T18:34:34.502Z,17.20
2022-10-23T18:37:02.551Z,16.70
2022-10-23T18:39:31.729Z,16.90
2022-10-23T18:41:59.673Z,17.10
2022-10-23T18:44:29.564Z,17.20
2022-10-23T18:46:58.537Z,17.00
2022-10-23T18:49:27.018Z,17.00
2022-10-23T18:51:54.954Z,17.00
2022-10-23T18:54:23.043Z,16.60
2022-10-23T18:56:52.209Z,17.10
2022-10-23T18:59:22.126Z,17.00
2022-10-23T19:01:50.564Z,17.20
2022-10-23T19:04:18.840Z,17.30
2022-10-23T19:06:47.737Z,17.20
2022-10-23T19:09:15.905Z,17.50
2022-10-23T19:11:45.169Z,16.90
2022-10-23T19:14:14.554Z,17.90
2022-10-23T19:16:52.419Z,17.20
2022-10-23T19:19:24.337Z,17.50
2022-10-23T19:21:54.078Z,17.60
2022-10-23T19:24:26.988Z,17.60
2022-10-23T19:26:56.466Z,17.20
2022-10-23T19:29:27.351Z,17.60
2022-10-23T19:31:55.657Z,17.80
2022-10-23T19:34:25.046Z,17.60
2022-10-23T19:36:54.674Z,17.80
2022-10-23T19:39:22.533Z,17.50
2022-10-23T19:41:51.402Z,17.50
2022-10-23T19:44:19.758Z,17.80
2022-10-23T19:46:49.589Z,17.60
2022-10-23T19:49:17.628Z,17.80
2022-10-23T19:51:50.640Z,17.50
2022-10-23T19:54:19.231Z,17.60
2022-10-23T19:56:47.286Z,17.90
2022-10-23T19:59:15.629Z,17.90
2022-10-23T20:01:46.359Z,17.40
2022-10-23T20:04:18.425Z,17.90
2022-10-23T20:06:46.965Z,17.50
2022-10-23T20:09:15.002Z,17.80
2022-10-23T20:11:43.537Z,17.80
2022-10-23T20:14:11.515Z,17.60
2022-10-23T20:16:40.764Z,17.50
2022-10-23T20:19:10.587Z,17.80
2022-10-23T20:21:42.148Z,17.60
2022-10-23T20:24:10.668Z,17.80
2022-10-23T20:26:41.025Z,17.80
2022-10-23T20:29:09.043Z,17.80
2022-10-23T20:31:39.300Z,18.00
2022-10-23T20:34:07.909Z,17.90
2022-10-23T20:36:40.126Z,17.40
2022-10-23T20:39:14.787Z,18.00
2022-10-23T20:41:44.137Z,18.00
2022-10-23T20:44:14.090Z,17.70
2022-10-23T20:46:42.459Z,18.10
2022-10-23T20:49:10.573Z,18.10
2022-10-23T20:51:38.468Z,17.80
2022-10-23T20:54:07.180Z,18.30
2022-10-23T20:56:39.217Z,18.20
2022-10-23T20:59:08.845Z,17.70
2022-10-23T21:01:37.079Z,18.40
2022-10-23T21:04:05.093Z,18.20
2022-10-23T21:06:45.811Z,18.10
2022-10-23T21:09:20.120Z,18.30
2022-10-23T21:11:49.481Z,18.30
2022-10-23T21:14:17.843Z,18.30
2022-10-23T21:16:46.461Z,18.30
2022-10-23T21:19:16.749Z,18.40
2022-10-23T21:21:45.315Z,18.50
2022-10-23T21:24:16.177Z,18.10
2022-10-23T21:26:44.839Z,18.10
2022-10-23T21:29:19.396Z,18.50
2022-10-23T21:31:53.112Z,18.00
2022-10-23T21:34:20.898Z,18.40
2022-10-23T21:37:11.328Z,18.50
2022-10-23T21:39:36.469Z,18.10
2022-10-23T21:42:04.309Z,18.70
2022-10-23T21:44:33.534Z,18.70
2022-10-23T21:47:01.324Z,18.60
2022-10-23T21:49:29.087Z,18.70
2022-10-23T21:51:56.827Z,18.40
2022-10-23T21:54:24.590Z,18.40
2022-10-23T21:56:54.200Z,19.00
2022-10-23T21:59:25.764Z,18.30
2022-10-23T22:01:56.904Z,18.90
2022-10-23T22:04:24.743Z,18.20
2022-10-23T22:06:53.090Z,18.50
2022-10-23T22:09:22.307Z,18.90
2022-10-23T22:11:50.572Z,18.70
2022-10-23T22:14:18.626Z,18.70
2022-10-23T22:16:46.872Z,18.80
2022-10-23T22:19:17.768Z,18.80
2022-10-23T22:21:45.597Z,18.50
2022-10-23T22:24:13.603Z,18.80
2022-10-23T22:26:43.592Z,18.70
2022-10-23T22:29:14.713Z,18.60
2022-10-23T22:31:45.693Z,18.40
2022-10-23T22:34:27.129Z,18.80
2022-10-23T22:37:09.889Z,18.90
2022-10-23T22:39:37.963Z,18.40
2022-10-23T22:42:05.765Z,18.70
2022-10-23T22:44:33.537Z,18.50
2022-10-23T22:47:01.273Z,18.50
2022-10-23T22:49:30.570Z,18.50
2022-10-23T22:51:58.306Z,18.20
2022-10-23T22:54:26.216Z,18.50
2022-10-23T22:56:53.979Z,18.10
2022-10-23T22:59:21.737Z,18.60
2022-10-23T23:01:50.879Z,18.50
2022-10-23T23:04:37.310Z,18.50
2022-10-23T23:07:07.481Z,18.40
2022-10-23T23:09:37.681Z,18.40
2022-10-23T23:12:05.677Z,18.40
2022-10-23T23:14:33.475Z,18.40
2022-10-23T23:17:01.210Z,18.40
2022-10-23T23:19:29.045Z,18.20
2022-10-23T23:21:57.423Z,18.30
2022-10-23T23:24:27.189Z,18.20
2022-10-23T23:26:55.022Z,17.90
2022-10-23T23:29:22.837Z,18.30
2022-10-23T23:31:50.563Z,17.80
2022-10-23T23:34:18.320Z,18.40
2022-10-23T23:36:46.062Z,18.00
2022-10-23T23:39:13.788Z,18.20
2022-10-23T23:41:42.869Z,18.20
2022-10-23T23:44:11.034Z,17.60
2022-10-23T23:46:38.822Z,18.20
2022-10-23T23:49:06.577Z,18.10
2022-10-23T23:51:35.068Z,18.20
2022-10-23T23:54:02.771Z,18.40
2022-10-23T23:56:31.869Z,17.70
2022-10-23T23:59:00.951Z,18.30
